This is the latest recevied weather packets stored in our database for station/object K3JAR-3. If no packets are shown the sender has not sent any weather packets the latest 10 day(s).
| Time | Temp. | Humidity | Pressure | Rain* | Wind** | Luminosity | Snow |
|---|---|---|---|---|---|---|---|
| 1777751423 | 24.44° C | 34% | 1022.6 hPa | 0 mm | - | - | - |
| 1777749021 | 24.44° C | 35% | 1022.9 hPa | 0 mm | - | - | - |
| 1777743024 | 22.78° C | 41% | 1024.3 hPa | 0 mm | - | - | - |
| 1777731019 | 16.67° C | 75% | 1024 hPa | 0 mm | - | - | - |
| 1777718444 | 9.44° C | 95% | 1021.4 hPa | 0 mm | - | - | - |
| 1777716617 | 10° C | 96% | 1021.7 hPa | 0 mm | - | - | - |
| 1777716021 | 9.44° C | 97% | 1021.4 hPa | 0 mm | - | - | - |
| 1777715425 | 9.44° C | 98% | 1021.2 hPa | 0 mm | - | - | - |
| 1777714220 | 9.44° C | 97% | 1020.9 hPa | 0 mm | - | - | - |
| 1777711830 | 10° C | 96% | 1021.2 hPa | 0 mm | - | - | - |
| 1777711216 | 10° C | 96% | 1021.2 hPa | 0 mm | - | - | - |
| 1777710024 | 10° C | 95% | 1021.1 hPa | 0 mm | - | - | - |
| 1777709428 | 10° C | 95% | 1021 hPa | 0 mm | - | - | - |
| 1777708832 | 10° C | 95% | 1021.2 hPa | 0 mm | - | - | - |
| 1777708218 | 10° C | 95% | 1021.2 hPa | 0 mm | - | - | - |
| 1777705816 | 10° C | 94% | 1021.2 hPa | 0 mm | - | - | - |
| 1777705220 | 10° C | 93% | 1021.2 hPa | 0 mm | - | - | - |
| 1777702817 | 11.11° C | 91% | 1021.3 hPa | 0 mm | - | - | - |
| 1777699262 | 11.11° C | 91% | 1021.3 hPa | 0 mm | - | - | - |
| 1777696219 | 12.22° C | 85% | 1021.2 hPa | 0 mm | - | - | - |
| 1777695616 | 12.22° C | 83% | 1021.2 hPa | 0 mm | - | - | - |
| 1777693822 | 13.33° C | 79% | 1021 hPa | 0 mm | - | - | - |
| 1777689017 | 15° C | 72% | 1020.4 hPa | 0 mm | - | - | - |
| 1777688421 | 14.44° C | 73% | 1020.3 hPa | 0 mm | - | - | - |
| 1777683041 | 15° C | 73% | 1018.4 hPa | 0 mm | - | - | - |
* Rain latest hour (hover to see other rain measurements)
** Current wind speed in m/s (hover to see current wind gust speed)